sensor_id;sensor_type;location;lat;lon;timestamp;P1;durP1;ratioP1;P2;durP2;ratioP2
55641;SDS011;41509;53.108;6.100;2023-07-13T00:00:34;8.80;;;1.60;;
55641;SDS011;41509;53.108;6.100;2023-07-13T00:03:01;3.50;;;1.02;;
55641;SDS011;41509;53.108;6.100;2023-07-13T00:05:28;4.28;;;1.17;;
55641;SDS011;41509;53.108;6.100;2023-07-13T00:07:53;5.72;;;0.98;;
55641;SDS011;41509;53.108;6.100;2023-07-13T00:10:20;3.35;;;1.00;;
55641;SDS011;41509;53.108;6.100;2023-07-13T00:12:46;4.57;;;1.42;;
55641;SDS011;41509;53.108;6.100;2023-07-13T00:15:24;8.15;;;0.70;;
55641;SDS011;41509;53.108;6.100;2023-07-13T00:17:54;5.53;;;0.95;;
55641;SDS011;41509;53.108;6.100;2023-07-13T00:20:21;7.15;;;1.05;;
55641;SDS011;41509;53.108;6.100;2023-07-13T00:22:50;4.53;;;1.00;;
55641;SDS011;41509;53.108;6.100;2023-07-13T00:25:18;3.92;;;0.90;;
55641;SDS011;41509;53.108;6.100;2023-07-13T00:27:49;3.38;;;0.88;;
55641;SDS011;41509;53.108;6.100;2023-07-13T00:30:15;3.72;;;0.65;;
55641;SDS011;41509;53.108;6.100;2023-07-13T00:32:41;5.32;;;0.80;;
55641;SDS011;41509;53.108;6.100;2023-07-13T00:35:07;4.15;;;0.95;;
55641;SDS011;41509;53.108;6.100;2023-07-13T00:40:01;5.20;;;1.13;;
55641;SDS011;41509;53.108;6.100;2023-07-13T00:42:31;1.92;;;0.60;;
55641;SDS011;41509;53.108;6.100;2023-07-13T00:47:45;3.30;;;1.10;;
55641;SDS011;41509;53.108;6.100;2023-07-13T00:50:12;6.03;;;1.48;;
55641;SDS011;41509;53.108;6.100;2023-07-13T00:52:43;4.70;;;1.00;;
55641;SDS011;41509;53.108;6.100;2023-07-13T00:55:11;1.52;;;0.60;;
55641;SDS011;41509;53.108;6.100;2023-07-13T00:57:38;3.63;;;0.77;;
55641;SDS011;41509;53.108;6.100;2023-07-13T01:00:05;3.65;;;0.70;;
55641;SDS011;41509;53.108;6.100;2023-07-13T01:02:35;3.25;;;0.60;;
55641;SDS011;41509;53.108;6.100;2023-07-13T01:05:10;6.88;;;1.20;;
55641;SDS011;41509;53.108;6.100;2023-07-13T01:07:40;3.65;;;0.68;;
55641;SDS011;41509;53.108;6.100;2023-07-13T01:10:09;2.25;;;0.70;;
55641;SDS011;41509;53.108;6.100;2023-07-13T01:12:36;2.05;;;0.45;;
55641;SDS011;41509;53.108;6.100;2023-07-13T01:15:02;3.58;;;0.55;;
55641;SDS011;41509;53.108;6.100;2023-07-13T01:17:29;3.83;;;0.50;;
55641;SDS011;41509;53.108;6.100;2023-07-13T01:19:58;2.83;;;0.50;;
55641;SDS011;41509;53.108;6.100;2023-07-13T01:22:25;3.15;;;0.55;;
55641;SDS011;41509;53.108;6.100;2023-07-13T01:24:52;1.88;;;0.32;;
55641;SDS011;41509;53.108;6.100;2023-07-13T01:27:23;1.20;;;0.30;;
55641;SDS011;41509;53.108;6.100;2023-07-13T01:29:50;3.60;;;0.50;;
55641;SDS011;41509;53.108;6.100;2023-07-13T01:32:19;3.65;;;0.50;;
55641;SDS011;41509;53.108;6.100;2023-07-13T01:34:49;1.50;;;0.50;;
55641;SDS011;41509;53.108;6.100;2023-07-13T01:37:19;2.28;;;0.57;;
55641;SDS011;41509;53.108;6.100;2023-07-13T01:39:46;4.57;;;0.70;;
55641;SDS011;41509;53.108;6.100;2023-07-13T01:42:12;0.80;;;0.30;;
55641;SDS011;41509;53.108;6.100;2023-07-13T01:44:38;2.35;;;0.68;;
55641;SDS011;41509;53.108;6.100;2023-07-13T01:47:04;2.63;;;0.70;;
55641;SDS011;41509;53.108;6.100;2023-07-13T01:49:30;2.95;;;0.40;;
55641;SDS011;41509;53.108;6.100;2023-07-13T01:51:56;2.97;;;0.47;;
55641;SDS011;41509;53.108;6.100;2023-07-13T01:54:22;3.80;;;0.98;;
55641;SDS011;41509;53.108;6.100;2023-07-13T01:56:48;1.25;;;0.55;;
55641;SDS011;41509;53.108;6.100;2023-07-13T01:59:14;2.15;;;0.60;;
55641;SDS011;41509;53.108;6.100;2023-07-13T02:01:40;1.88;;;0.60;;
55641;SDS011;41509;53.108;6.100;2023-07-13T02:04:05;5.53;;;1.08;;
55641;SDS011;41509;53.108;6.100;2023-07-13T02:06:31;2.42;;;0.47;;
55641;SDS011;41509;53.108;6.100;2023-07-13T02:08:58;2.80;;;0.63;;
55641;SDS011;41509;53.108;6.100;2023-07-13T02:11:24;2.58;;;0.70;;
55641;SDS011;41509;53.108;6.100;2023-07-13T02:13:50;2.58;;;0.50;;
55641;SDS011;41509;53.108;6.100;2023-07-13T02:16:17;1.95;;;0.52;;
55641;SDS011;41509;53.108;6.100;2023-07-13T02:18:42;3.80;;;0.63;;
55641;SDS011;41509;53.108;6.100;2023-07-13T02:21:08;4.47;;;0.82;;
55641;SDS011;41509;53.108;6.100;2023-07-13T02:23:34;5.55;;;1.00;;
55641;SDS011;41509;53.108;6.100;2023-07-13T02:28:27;5.38;;;1.02;;
55641;SDS011;41509;53.108;6.100;2023-07-13T02:30:53;2.13;;;0.55;;
55641;SDS011;41509;53.108;6.100;2023-07-13T02:33:19;2.90;;;0.90;;
55641;SDS011;41509;53.108;6.100;2023-07-13T02:35:45;4.10;;;1.00;;
55641;SDS011;41509;53.108;6.100;2023-07-13T02:38:11;4.13;;;1.15;;
55641;SDS011;41509;53.108;6.100;2023-07-13T02:40:36;3.22;;;1.20;;
55641;SDS011;41509;53.108;6.100;2023-07-13T02:43:03;4.88;;;1.20;;
55641;SDS011;41509;53.108;6.100;2023-07-13T02:45:29;5.22;;;1.23;;
55641;SDS011;41509;53.108;6.100;2023-07-13T02:47:55;2.95;;;1.13;;
55641;SDS011;41509;53.108;6.100;2023-07-13T02:50:21;4.88;;;1.15;;
55641;SDS011;41509;53.108;6.100;2023-07-13T02:52:46;4.15;;;1.17;;
55641;SDS011;41509;53.108;6.100;2023-07-13T02:55:12;5.07;;;1.10;;
55641;SDS011;41509;53.108;6.100;2023-07-13T02:57:38;5.15;;;1.30;;
55641;SDS011;41509;53.108;6.100;2023-07-13T03:00:04;5.57;;;1.00;;
55641;SDS011;41509;53.108;6.100;2023-07-13T03:02:31;3.08;;;1.20;;
55641;SDS011;41509;53.108;6.100;2023-07-13T03:04:58;3.78;;;1.20;;
55641;SDS011;41509;53.108;6.100;2023-07-13T03:07:24;10.73;;;1.75;;
55641;SDS011;41509;53.108;6.100;2023-07-13T03:09:57;5.72;;;1.67;;
55641;SDS011;41509;53.108;6.100;2023-07-13T03:12:23;6.80;;;1.42;;
55641;SDS011;41509;53.108;6.100;2023-07-13T03:17:15;5.88;;;1.63;;
55641;SDS011;41509;53.108;6.100;2023-07-13T03:19:41;7.93;;;2.00;;
55641;SDS011;41509;53.108;6.100;2023-07-13T03:22:07;13.35;;;1.88;;
55641;SDS011;41509;53.108;6.100;2023-07-13T03:24:33;5.88;;;1.63;;
55641;SDS011;41509;53.108;6.100;2023-07-13T03:27:01;10.32;;;2.50;;
55641;SDS011;41509;53.108;6.100;2023-07-13T03:29:27;5.97;;;1.92;;
55641;SDS011;41509;53.108;6.100;2023-07-13T03:31:53;10.48;;;1.90;;
55641;SDS011;41509;53.108;6.100;2023-07-13T03:34:19;3.70;;;1.38;;
55641;SDS011;41509;53.108;6.100;2023-07-13T03:36:45;8.95;;;1.98;;
55641;SDS011;41509;53.108;6.100;2023-07-13T03:39:10;9.48;;;1.65;;
55641;SDS011;41509;53.108;6.100;2023-07-13T03:41:36;5.28;;;1.65;;
55641;SDS011;41509;53.108;6.100;2023-07-13T03:44:02;9.57;;;1.85;;
55641;SDS011;41509;53.108;6.100;2023-07-13T03:48:54;12.18;;;1.83;;
55641;SDS011;41509;53.108;6.100;2023-07-13T03:51:20;10.02;;;2.25;;
55641;SDS011;41509;53.108;6.100;2023-07-13T03:53:46;10.07;;;2.47;;
55641;SDS011;41509;53.108;6.100;2023-07-13T03:56:13;9.95;;;1.80;;
55641;SDS011;41509;53.108;6.100;2023-07-13T03:58:40;12.70;;;1.50;;
55641;SDS011;41509;53.108;6.100;2023-07-13T04:01:09;8.88;;;1.80;;
55641;SDS011;41509;53.108;6.100;2023-07-13T04:03:35;6.55;;;2.10;;
55641;SDS011;41509;53.108;6.100;2023-07-13T04:06:02;10.38;;;2.00;;
55641;SDS011;41509;53.108;6.100;2023-07-13T04:08:31;10.32;;;2.00;;
55641;SDS011;41509;53.108;6.100;2023-07-13T04:10:59;9.25;;;1.67;;
55641;SDS011;41509;53.108;6.100;2023-07-13T04:13:25;8.68;;;1.50;;
55641;SDS011;41509;53.108;6.100;2023-07-13T04:18:18;10.10;;;1.73;;
55641;SDS011;41509;53.108;6.100;2023-07-13T04:20:45;8.65;;;2.03;;
55641;SDS011;41509;53.108;6.100;2023-07-13T04:23:11;5.05;;;1.63;;
55641;SDS011;41509;53.108;6.100;2023-07-13T04:25:37;10.13;;;1.60;;
55641;SDS011;41509;53.108;6.100;2023-07-13T04:28:03;8.93;;;1.83;;
55641;SDS011;41509;53.108;6.100;2023-07-13T04:30:30;7.18;;;1.88;;
55641;SDS011;41509;53.108;6.100;2023-07-13T04:32:56;8.68;;;1.30;;
55641;SDS011;41509;53.108;6.100;2023-07-13T04:35:22;6.35;;;1.52;;
55641;SDS011;41509;53.108;6.100;2023-07-13T04:37:49;5.03;;;1.08;;
55641;SDS011;41509;53.108;6.100;2023-07-13T04:40:16;6.80;;;1.30;;
55641;SDS011;41509;53.108;6.100;2023-07-13T04:42:43;5.30;;;1.45;;
55641;SDS011;41509;53.108;6.100;2023-07-13T04:45:09;5.03;;;1.30;;
55641;SDS011;41509;53.108;6.100;2023-07-13T04:47:37;9.27;;;1.73;;
55641;SDS011;41509;53.108;6.100;2023-07-13T04:50:03;8.70;;;1.67;;
55641;SDS011;41509;53.108;6.100;2023-07-13T04:52:29;6.18;;;1.85;;
55641;SDS011;41509;53.108;6.100;2023-07-13T04:54:55;4.13;;;1.05;;
55641;SDS011;41509;53.108;6.100;2023-07-13T04:57:21;6.78;;;1.45;;
55641;SDS011;41509;53.108;6.100;2023-07-13T04:59:47;6.07;;;1.63;;
55641;SDS011;41509;53.108;6.100;2023-07-13T05:02:13;5.25;;;2.05;;
55641;SDS011;41509;53.108;6.100;2023-07-13T05:04:38;6.70;;;1.52;;
55641;SDS011;41509;53.108;6.100;2023-07-13T05:07:05;4.82;;;1.50;;
55641;SDS011;41509;53.108;6.100;2023-07-13T05:09:31;5.00;;;1.27;;
55641;SDS011;41509;53.108;6.100;2023-07-13T05:11:57;5.28;;;1.67;;
55641;SDS011;41509;53.108;6.100;2023-07-13T05:14:23;8.52;;;1.30;;
55641;SDS011;41509;53.108;6.100;2023-07-13T05:16:49;8.75;;;2.00;;
55641;SDS011;41509;53.108;6.100;2023-07-13T05:19:15;6.72;;;1.83;;
55641;SDS011;41509;53.108;6.100;2023-07-13T05:21:40;6.45;;;1.25;;
55641;SDS011;41509;53.108;6.100;2023-07-13T05:24:06;6.03;;;1.33;;
55641;SDS011;41509;53.108;6.100;2023-07-13T05:26:32;6.25;;;1.58;;
55641;SDS011;41509;53.108;6.100;2023-07-13T05:31:24;6.93;;;1.30;;
55641;SDS011;41509;53.108;6.100;2023-07-13T05:33:50;10.02;;;1.40;;
55641;SDS011;41509;53.108;6.100;2023-07-13T05:36:16;8.65;;;1.83;;
55641;SDS011;41509;53.108;6.100;2023-07-13T05:38:42;8.07;;;1.95;;
55641;SDS011;41509;53.108;6.100;2023-07-13T05:41:07;4.88;;;2.00;;
55641;SDS011;41509;53.108;6.100;2023-07-13T05:43:33;4.13;;;1.42;;
55641;SDS011;41509;53.108;6.100;2023-07-13T05:48:25;4.28;;;1.20;;
55641;SDS011;41509;53.108;6.100;2023-07-13T05:50:51;7.60;;;1.40;;
55641;SDS011;41509;53.108;6.100;2023-07-13T05:53:16;6.22;;;2.05;;
55641;SDS011;41509;53.108;6.100;2023-07-13T05:55:43;5.63;;;1.40;;
55641;SDS011;41509;53.108;6.100;2023-07-13T05:58:12;7.20;;;1.52;;
55641;SDS011;41509;53.108;6.100;2023-07-13T06:00:39;10.18;;;2.10;;
55641;SDS011;41509;53.108;6.100;2023-07-13T06:03:07;8.57;;;1.50;;
55641;SDS011;41509;53.108;6.100;2023-07-13T06:05:33;5.72;;;1.60;;
55641;SDS011;41509;53.108;6.100;2023-07-13T06:08:02;3.50;;;1.25;;
55641;SDS011;41509;53.108;6.100;2023-07-13T06:12:53;8.38;;;1.50;;
55641;SDS011;41509;53.108;6.100;2023-07-13T06:15:19;8.30;;;1.38;;
55641;SDS011;41509;53.108;6.100;2023-07-13T06:17:45;2.72;;;1.40;;
55641;SDS011;41509;53.108;6.100;2023-07-13T06:22:37;11.02;;;1.55;;
55641;SDS011;41509;53.108;6.100;2023-07-13T06:25:03;5.63;;;1.70;;
55641;SDS011;41509;53.108;6.100;2023-07-13T06:27:29;5.18;;;1.70;;
55641;SDS011;41509;53.108;6.100;2023-07-13T06:32:21;13.00;;;2.08;;
55641;SDS011;41509;53.108;6.100;2023-07-13T06:34:47;3.47;;;1.55;;
55641;SDS011;41509;53.108;6.100;2023-07-13T06:37:12;5.55;;;1.45;;
55641;SDS011;41509;53.108;6.100;2023-07-13T06:39:38;4.75;;;1.98;;
55641;SDS011;41509;53.108;6.100;2023-07-13T06:42:05;2.92;;;1.27;;
55641;SDS011;41509;53.108;6.100;2023-07-13T06:44:31;6.45;;;1.80;;
55641;SDS011;41509;53.108;6.100;2023-07-13T06:46:56;7.70;;;2.05;;
55641;SDS011;41509;53.108;6.100;2023-07-13T06:49:22;4.82;;;1.60;;
55641;SDS011;41509;53.108;6.100;2023-07-13T06:51:48;5.50;;;1.33;;
55641;SDS011;41509;53.108;6.100;2023-07-13T06:54:14;6.00;;;1.65;;
55641;SDS011;41509;53.108;6.100;2023-07-13T06:56:40;4.68;;;2.22;;
55641;SDS011;41509;53.108;6.100;2023-07-13T06:59:06;12.82;;;1.73;;
55641;SDS011;41509;53.108;6.100;2023-07-13T07:01:31;8.30;;;1.67;;
55641;SDS011;41509;53.108;6.100;2023-07-13T07:03:57;7.13;;;1.80;;
55641;SDS011;41509;53.108;6.100;2023-07-13T07:06:23;8.10;;;1.70;;
55641;SDS011;41509;53.108;6.100;2023-07-13T07:08:49;6.20;;;1.52;;
55641;SDS011;41509;53.108;6.100;2023-07-13T07:11:25;5.25;;;1.48;;
55641;SDS011;41509;53.108;6.100;2023-07-13T07:13:51;6.63;;;1.63;;
55641;SDS011;41509;53.108;6.100;2023-07-13T07:16:18;4.97;;;1.98;;
55641;SDS011;41509;53.108;6.100;2023-07-13T07:18:46;9.63;;;2.45;;
55641;SDS011;41509;53.108;6.100;2023-07-13T07:21:12;10.82;;;2.38;;
55641;SDS011;41509;53.108;6.100;2023-07-13T07:23:39;5.63;;;1.48;;
55641;SDS011;41509;53.108;6.100;2023-07-13T07:26:05;4.47;;;1.40;;
55641;SDS011;41509;53.108;6.100;2023-07-13T07:28:33;5.00;;;1.58;;
55641;SDS011;41509;53.108;6.100;2023-07-13T07:30:59;4.15;;;1.60;;
55641;SDS011;41509;53.108;6.100;2023-07-13T07:33:25;3.42;;;1.40;;
55641;SDS011;41509;53.108;6.100;2023-07-13T07:35:51;6.22;;;1.70;;
55641;SDS011;41509;53.108;6.100;2023-07-13T07:40:43;2.42;;;1.00;;
55641;SDS011;41509;53.108;6.100;2023-07-13T07:43:09;2.58;;;1.05;;
55641;SDS011;41509;53.108;6.100;2023-07-13T07:45:37;6.22;;;1.30;;
55641;SDS011;41509;53.108;6.100;2023-07-13T07:48:04;6.25;;;1.20;;
55641;SDS011;41509;53.108;6.100;2023-07-13T07:50:31;4.28;;;1.05;;
55641;SDS011;41509;53.108;6.100;2023-07-13T07:55:23;7.82;;;1.65;;
55641;SDS011;41509;53.108;6.100;2023-07-13T07:57:51;4.25;;;1.40;;
55641;SDS011;41509;53.108;6.100;2023-07-13T08:00:16;3.95;;;1.30;;
55641;SDS011;41509;53.108;6.100;2023-07-13T08:02:43;7.38;;;1.88;;
55641;SDS011;41509;53.108;6.100;2023-07-13T08:07:36;6.00;;;2.00;;
55641;SDS011;41509;53.108;6.100;2023-07-13T08:10:03;3.70;;;1.58;;
55641;SDS011;41509;53.108;6.100;2023-07-13T08:12:30;4.20;;;1.67;;
55641;SDS011;41509;53.108;6.100;2023-07-13T08:14:59;3.13;;;1.35;;
55641;SDS011;41509;53.108;6.100;2023-07-13T08:17:26;5.97;;;1.70;;
55641;SDS011;41509;53.108;6.100;2023-07-13T08:19:52;7.50;;;1.42;;
55641;SDS011;41509;53.108;6.100;2023-07-13T08:22:17;4.82;;;1.67;;
55641;SDS011;41509;53.108;6.100;2023-07-13T08:24:43;5.05;;;1.42;;
55641;SDS011;41509;53.108;6.100;2023-07-13T08:27:12;4.05;;;1.35;;
55641;SDS011;41509;53.108;6.100;2023-07-13T08:29:38;4.63;;;1.73;;
55641;SDS011;41509;53.108;6.100;2023-07-13T08:32:05;5.15;;;1.13;;
55641;SDS011;41509;53.108;6.100;2023-07-13T08:34:34;4.45;;;1.20;;
55641;SDS011;41509;53.108;6.100;2023-07-13T08:37:01;3.40;;;1.35;;
55641;SDS011;41509;53.108;6.100;2023-07-13T08:39:28;4.95;;;1.45;;
55641;SDS011;41509;53.108;6.100;2023-07-13T08:41:56;4.57;;;1.40;;
55641;SDS011;41509;53.108;6.100;2023-07-13T08:47:21;4.38;;;1.42;;
55641;SDS011;41509;53.108;6.100;2023-07-13T08:49:48;6.30;;;1.80;;
55641;SDS011;41509;53.108;6.100;2023-07-13T08:54:58;3.70;;;1.65;;
55641;SDS011;41509;53.108;6.100;2023-07-13T08:57:42;5.72;;;1.50;;
55641;SDS011;41509;53.108;6.100;2023-07-13T09:00:13;4.05;;;1.23;;
55641;SDS011;41509;53.108;6.100;2023-07-13T09:17:03;3.17;;;1.00;;
55641;SDS011;41509;53.108;6.100;2023-07-13T09:19:35;2.35;;;0.90;;
55641;SDS011;41509;53.108;6.100;2023-07-13T09:24:36;3.88;;;1.08;;
55641;SDS011;41509;53.108;6.100;2023-07-13T09:27:03;2.03;;;0.95;;
55641;SDS011;41509;53.108;6.100;2023-07-13T09:29:43;3.75;;;1.13;;
55641;SDS011;41509;53.108;6.100;2023-07-13T09:32:14;7.47;;;1.15;;
55641;SDS011;41509;53.108;6.100;2023-07-13T09:34:53;2.97;;;0.90;;
55641;SDS011;41509;53.108;6.100;2023-07-13T09:37:20;3.50;;;1.08;;
55641;SDS011;41509;53.108;6.100;2023-07-13T09:39:52;2.53;;;1.00;;
55641;SDS011;41509;53.108;6.100;2023-07-13T09:42:20;2.45;;;0.90;;
55641;SDS011;41509;53.108;6.100;2023-07-13T09:47:20;1.48;;;0.80;;
55641;SDS011;41509;53.108;6.100;2023-07-13T09:50:03;2.90;;;0.98;;
55641;SDS011;41509;53.108;6.100;2023-07-13T09:52:41;4.53;;;0.80;;
55641;SDS011;41509;53.108;6.100;2023-07-13T10:00:43;2.28;;;0.73;;
55641;SDS011;41509;53.108;6.100;2023-07-13T10:03:22;3.78;;;0.80;;
55641;SDS011;41509;53.108;6.100;2023-07-13T10:05:52;2.45;;;0.90;;
55641;SDS011;41509;53.108;6.100;2023-07-13T10:13:56;0.98;;;0.57;;
55641;SDS011;41509;53.108;6.100;2023-07-13T10:16:33;2.25;;;0.80;;
55641;SDS011;41509;53.108;6.100;2023-07-13T10:21:55;1.30;;;0.63;;
55641;SDS011;41509;53.108;6.100;2023-07-13T10:24:23;3.33;;;0.80;;
55641;SDS011;41509;53.108;6.100;2023-07-13T10:27:01;1.75;;;0.70;;
55641;SDS011;41509;53.108;6.100;2023-07-13T10:30:04;1.60;;;0.80;;
55641;SDS011;41509;53.108;6.100;2023-07-13T10:32:37;1.67;;;0.70;;
55641;SDS011;41509;53.108;6.100;2023-07-13T10:35:03;4.35;;;1.00;;
55641;SDS011;41509;53.108;6.100;2023-07-13T10:37:36;4.95;;;1.20;;
55641;SDS011;41509;53.108;6.100;2023-07-13T10:40:14;1.75;;;0.70;;
55641;SDS011;41509;53.108;6.100;2023-07-13T10:42:45;3.25;;;1.30;;
55641;SDS011;41509;53.108;6.100;2023-07-13T10:45:18;2.40;;;0.90;;
55641;SDS011;41509;53.108;6.100;2023-07-13T10:47:46;3.75;;;0.90;;
55641;SDS011;41509;53.108;6.100;2023-07-13T10:50:23;3.60;;;0.98;;
55641;SDS011;41509;53.108;6.100;2023-07-13T10:52:51;3.22;;;1.10;;
55641;SDS011;41509;53.108;6.100;2023-07-13T10:55:33;6.10;;;1.23;;
55641;SDS011;41509;53.108;6.100;2023-07-13T11:01:03;2.30;;;0.73;;
55641;SDS011;41509;53.108;6.100;2023-07-13T11:18:41;8.38;;;1.20;;
55641;SDS011;41509;53.108;6.100;2023-07-13T11:23:54;5.72;;;1.10;;
55641;SDS011;41509;53.108;6.100;2023-07-13T11:26:50;3.30;;;0.98;;
55641;SDS011;41509;53.108;6.100;2023-07-13T11:34:23;5.15;;;1.00;;
55641;SDS011;41509;53.108;6.100;2023-07-13T11:36:56;3.90;;;1.23;;
55641;SDS011;41509;53.108;6.100;2023-07-13T11:39:57;1.75;;;0.73;;
55641;SDS011;41509;53.108;6.100;2023-07-13T11:42:18;4.25;;;1.08;;
55641;SDS011;41509;53.108;6.100;2023-07-13T11:44:46;2.70;;;0.95;;
55641;SDS011;41509;53.108;6.100;2023-07-13T11:47:17;4.15;;;1.42;;
55641;SDS011;41509;53.108;6.100;2023-07-13T11:49:49;4.22;;;0.93;;
55641;SDS011;41509;53.108;6.100;2023-07-13T11:52:18;6.95;;;1.10;;
55641;SDS011;41509;53.108;6.100;2023-07-13T11:54:56;3.38;;;0.70;;
55641;SDS011;41509;53.108;6.100;2023-07-13T11:57:27;1.60;;;0.63;;
55641;SDS011;41509;53.108;6.100;2023-07-13T12:00:44;9.93;;;1.27;;
55641;SDS011;41509;53.108;6.100;2023-07-13T12:02:52;4.13;;;0.95;;
55641;SDS011;41509;53.108;6.100;2023-07-13T12:05:20;4.85;;;1.15;;
55641;SDS011;41509;53.108;6.100;2023-07-13T12:12:46;4.15;;;1.00;;
55641;SDS011;41509;53.108;6.100;2023-07-13T12:15:23;5.22;;;1.08;;
55641;SDS011;41509;53.108;6.100;2023-07-13T12:17:55;3.70;;;0.93;;
55641;SDS011;41509;53.108;6.100;2023-07-13T12:20:30;5.90;;;1.10;;
55641;SDS011;41509;53.108;6.100;2023-07-13T12:23:04;4.70;;;0.80;;
55641;SDS011;41509;53.108;6.100;2023-07-13T12:25:31;3.17;;;0.73;;
55641;SDS011;41509;53.108;6.100;2023-07-13T12:30:27;2.88;;;0.68;;
55641;SDS011;41509;53.108;6.100;2023-07-13T12:32:57;1.75;;;0.70;;
55641;SDS011;41509;53.108;6.100;2023-07-13T12:35:25;3.17;;;1.33;;
55641;SDS011;41509;53.108;6.100;2023-07-13T12:37:54;4.68;;;0.93;;
55641;SDS011;41509;53.108;6.100;2023-07-13T12:40:27;1.60;;;0.50;;
55641;SDS011;41509;53.108;6.100;2023-07-13T12:43:00;4.35;;;1.27;;
55641;SDS011;41509;53.108;6.100;2023-07-13T12:45:29;3.33;;;1.10;;
55641;SDS011;41509;53.108;6.100;2023-07-13T12:47:57;1.60;;;0.80;;
55641;SDS011;41509;53.108;6.100;2023-07-13T12:50:46;3.30;;;0.82;;
55641;SDS011;41509;53.108;6.100;2023-07-13T12:53:14;3.30;;;1.23;;
55641;SDS011;41509;53.108;6.100;2023-07-13T12:58:20;2.53;;;0.85;;
55641;SDS011;41509;53.108;6.100;2023-07-13T13:00:51;4.57;;;1.13;;
55641;SDS011;41509;53.108;6.100;2023-07-13T13:03:33;3.47;;;1.17;;
55641;SDS011;41509;53.108;6.100;2023-07-13T13:06:29;4.05;;;1.00;;
55641;SDS011;41509;53.108;6.100;2023-07-13T13:08:56;2.63;;;0.90;;
55641;SDS011;41509;53.108;6.100;2023-07-13T13:11:24;6.50;;;1.30;;
55641;SDS011;41509;53.108;6.100;2023-07-13T13:13:51;5.55;;;1.30;;
55641;SDS011;41509;53.108;6.100;2023-07-13T13:19:01;5.60;;;0.90;;
55641;SDS011;41509;53.108;6.100;2023-07-13T13:21:41;3.33;;;1.00;;
55641;SDS011;41509;53.108;6.100;2023-07-13T13:24:10;5.25;;;0.95;;
55641;SDS011;41509;53.108;6.100;2023-07-13T13:26:41;6.88;;;1.08;;
55641;SDS011;41509;53.108;6.100;2023-07-13T13:29:12;4.38;;;1.20;;
55641;SDS011;41509;53.108;6.100;2023-07-13T13:31:40;4.63;;;0.73;;
55641;SDS011;41509;53.108;6.100;2023-07-13T13:34:10;3.88;;;0.95;;
55641;SDS011;41509;53.108;6.100;2023-07-13T13:36:36;3.55;;;0.95;;
55641;SDS011;41509;53.108;6.100;2023-07-13T13:39:05;3.35;;;1.00;;
55641;SDS011;41509;53.108;6.100;2023-07-13T13:41:52;6.88;;;1.17;;
55641;SDS011;41509;53.108;6.100;2023-07-13T13:44:18;6.13;;;0.93;;
55641;SDS011;41509;53.108;6.100;2023-07-13T13:46:46;4.38;;;1.02;;
55641;SDS011;41509;53.108;6.100;2023-07-13T13:49:16;3.65;;;1.10;;
55641;SDS011;41509;53.108;6.100;2023-07-13T13:51:46;4.50;;;1.00;;
55641;SDS011;41509;53.108;6.100;2023-07-13T13:54:12;5.18;;;1.05;;
55641;SDS011;41509;53.108;6.100;2023-07-13T13:56:43;3.92;;;1.10;;
55641;SDS011;41509;53.108;6.100;2023-07-13T13:59:10;4.75;;;1.20;;
55641;SDS011;41509;53.108;6.100;2023-07-13T14:01:36;3.47;;;1.10;;
55641;SDS011;41509;53.108;6.100;2023-07-13T14:04:03;1.90;;;0.63;;
55641;SDS011;41509;53.108;6.100;2023-07-13T14:06:30;4.85;;;1.20;;
55641;SDS011;41509;53.108;6.100;2023-07-13T14:08:57;4.82;;;1.00;;
55641;SDS011;41509;53.108;6.100;2023-07-13T14:13:58;5.22;;;1.75;;
55641;SDS011;41509;53.108;6.100;2023-07-13T14:16:26;4.28;;;1.30;;
55641;SDS011;41509;53.108;6.100;2023-07-13T14:18:54;6.55;;;1.15;;
55641;SDS011;41509;53.108;6.100;2023-07-13T14:21:23;8.10;;;0.93;;
55641;SDS011;41509;53.108;6.100;2023-07-13T14:26:25;1.98;;;0.88;;
55641;SDS011;41509;53.108;6.100;2023-07-13T14:28:53;4.10;;;1.27;;
55641;SDS011;41509;53.108;6.100;2023-07-13T14:31:21;4.30;;;1.42;;
55641;SDS011;41509;53.108;6.100;2023-07-13T14:33:47;3.70;;;1.20;;
55641;SDS011;41509;53.108;6.100;2023-07-13T14:38:58;5.32;;;1.30;;
55641;SDS011;41509;53.108;6.100;2023-07-13T14:41:24;7.28;;;1.30;;
55641;SDS011;41509;53.108;6.100;2023-07-13T14:43:50;3.00;;;1.10;;
55641;SDS011;41509;53.108;6.100;2023-07-13T14:49:07;4.20;;;0.98;;
55641;SDS011;41509;53.108;6.100;2023-07-13T14:51:41;2.33;;;0.95;;
55641;SDS011;41509;53.108;6.100;2023-07-13T14:56:34;3.50;;;1.08;;
55641;SDS011;41509;53.108;6.100;2023-07-13T15:01:25;4.25;;;1.23;;
55641;SDS011;41509;53.108;6.100;2023-07-13T15:03:52;4.35;;;1.40;;
55641;SDS011;41509;53.108;6.100;2023-07-13T15:08:44;3.47;;;1.10;;
55641;SDS011;41509;53.108;6.100;2023-07-13T15:11:12;5.75;;;1.08;;
55641;SDS011;41509;53.108;6.100;2023-07-13T15:13:39;3.42;;;1.15;;
55641;SDS011;41509;53.108;6.100;2023-07-13T15:16:24;7.70;;;1.30;;
55641;SDS011;41509;53.108;6.100;2023-07-13T15:18:51;3.92;;;1.13;;
55641;SDS011;41509;53.108;6.100;2023-07-13T15:21:21;5.90;;;1.60;;
55641;SDS011;41509;53.108;6.100;2023-07-13T15:23:49;4.57;;;1.80;;
55641;SDS011;41509;53.108;6.100;2023-07-13T15:26:17;3.75;;;1.30;;
55641;SDS011;41509;53.108;6.100;2023-07-13T15:28:44;3.53;;;1.13;;
55641;SDS011;41509;53.108;6.100;2023-07-13T15:31:32;4.25;;;1.25;;
55641;SDS011;41509;53.108;6.100;2023-07-13T15:33:58;12.38;;;1.45;;
55641;SDS011;41509;53.108;6.100;2023-07-13T15:36:24;4.88;;;1.30;;
55641;SDS011;41509;53.108;6.100;2023-07-13T15:38:51;3.78;;;1.02;;
55641;SDS011;41509;53.108;6.100;2023-07-13T15:41:23;1.77;;;0.90;;
55641;SDS011;41509;53.108;6.100;2023-07-13T15:43:51;3.65;;;1.05;;
55641;SDS011;41509;53.108;6.100;2023-07-13T15:46:19;4.63;;;0.90;;
55641;SDS011;41509;53.108;6.100;2023-07-13T15:48:49;3.30;;;1.20;;
55641;SDS011;41509;53.108;6.100;2023-07-13T15:51:21;3.60;;;0.98;;
55641;SDS011;41509;53.108;6.100;2023-07-13T15:53:52;2.60;;;1.00;;
55641;SDS011;41509;53.108;6.100;2023-07-13T15:56:25;4.40;;;1.55;;
55641;SDS011;41509;53.108;6.100;2023-07-13T15:58:52;2.58;;;1.00;;
55641;SDS011;41509;53.108;6.100;2023-07-13T16:01:18;4.15;;;1.00;;
55641;SDS011;41509;53.108;6.100;2023-07-13T16:03:46;4.45;;;1.08;;
55641;SDS011;41509;53.108;6.100;2023-07-13T16:06:16;9.85;;;1.30;;
55641;SDS011;41509;53.108;6.100;2023-07-13T16:08:43;4.43;;;1.25;;
55641;SDS011;41509;53.108;6.100;2023-07-13T16:11:19;3.08;;;1.20;;
55641;SDS011;41509;53.108;6.100;2023-07-13T16:13:48;4.35;;;1.17;;
55641;SDS011;41509;53.108;6.100;2023-07-13T16:16:21;1.33;;;0.75;;
55641;SDS011;41509;53.108;6.100;2023-07-13T16:18:54;4.45;;;1.10;;
55641;SDS011;41509;53.108;6.100;2023-07-13T16:21:22;4.07;;;1.50;;
55641;SDS011;41509;53.108;6.100;2023-07-13T16:23:50;3.95;;;0.88;;
55641;SDS011;41509;53.108;6.100;2023-07-13T16:29:14;9.82;;;1.60;;
55641;SDS011;41509;53.108;6.100;2023-07-13T16:31:40;4.95;;;0.88;;
55641;SDS011;41509;53.108;6.100;2023-07-13T16:34:07;1.67;;;0.90;;
55641;SDS011;41509;53.108;6.100;2023-07-13T16:36:35;3.33;;;1.17;;
55641;SDS011;41509;53.108;6.100;2023-07-13T16:39:09;4.85;;;1.40;;
55641;SDS011;41509;53.108;6.100;2023-07-13T16:41:39;4.85;;;1.58;;
55641;SDS011;41509;53.108;6.100;2023-07-13T16:44:15;6.95;;;1.33;;
55641;SDS011;41509;53.108;6.100;2023-07-13T16:46:45;4.25;;;1.20;;
55641;SDS011;41509;53.108;6.100;2023-07-13T16:49:21;3.92;;;1.35;;
55641;SDS011;41509;53.108;6.100;2023-07-13T16:51:49;4.35;;;1.08;;
55641;SDS011;41509;53.108;6.100;2023-07-13T16:54:15;2.85;;;1.08;;
55641;SDS011;41509;53.108;6.100;2023-07-13T16:56:47;5.15;;;1.75;;
55641;SDS011;41509;53.108;6.100;2023-07-13T16:59:19;4.18;;;1.58;;
55641;SDS011;41509;53.108;6.100;2023-07-13T17:01:45;7.50;;;1.45;;
55641;SDS011;41509;53.108;6.100;2023-07-13T17:04:12;5.40;;;0.93;;
55641;SDS011;41509;53.108;6.100;2023-07-13T17:06:41;4.80;;;1.25;;
55641;SDS011;41509;53.108;6.100;2023-07-13T17:09:11;3.75;;;1.45;;